Time;durP1;ratioP1;P1;durP2;ratioP2;P2;SDS_P1;SDS_P2;PMS_P1;PMS_P2;Temp;Humidity;BMP_temperature;BMP_pressure;BME280_temperature;BME280_humidity;BME280_pressure;Samples;Min_cycle;Max_cycle;Signal;HPM_P1;HPM_P2
2022/08/13 09:21:28;;;;;;;1.83;1.73;;;;;;;;;;6305612;22;20540;-82
2022/08/13 09:23:55;;;;;;;2.15;1.98;;;;;;;;;;6308065;22;20019;-85
2022/08/13 09:26:22;;;;;;;2.38;2.17;;;;;;;;;;6308076;22;20003;-88
2022/08/13 09:28:48;;;;;;;1.85;1.75;;;;;;;;;;6308342;22;20007;-87
2022/08/13 09:34:39;;;;;;;1.90;1.80;;;;;;;;;;6308418;22;20023;-87
2022/08/13 09:37:07;;;;;;;3.85;2.03;;;;;;;;;;6308314;22;20007;-84
2022/08/13 09:39:51;;;;;;;2.80;2.30;;;;;;;;;;6308566;22;20004;-84
2022/08/13 09:42:24;;;;;;;1.83;1.60;;;;;;;;;;6308227;22;19999;-86
2022/08/13 09:45:00;;;;;;;3.38;1.73;;;;;;;;;;6308348;22;20004;-83
2022/08/13 09:47:26;;;;;;;2.20;2.00;;;;;;;;;;6308488;22;20007;-85
2022/08/13 09:49:52;;;;;;;2.13;1.92;;;;;;;;;;6308104;22;20010;-85
2022/08/13 09:52:19;;;;;;;2.53;1.80;;;;;;;;;;6308770;22;20003;-84
2022/08/13 09:54:45;;;;;;;2.92;1.85;;;;;;;;;;6308557;22;20004;-83
2022/08/13 09:57:11;;;;;;;1.90;1.80;;;;;;;;;;6308395;22;20026;-85
2022/08/13 09:59:36;;;;;;;3.95;1.90;;;;;;;;;;6308511;22;20007;-90
2022/08/13 10:02:09;;;;;;;2.40;2.20;;;;;;;;;;6307923;22;20456;-87
2022/08/13 10:04:37;;;;;;;1.92;1.83;;;;;;;;;;6307839;22;19999;-86
2022/08/13 10:07:03;;;;;;;2.20;2.00;;;;;;;;;;6309550;22;20027;-91
2022/08/13 10:09:29;;;;;;;2.47;1.88;;;;;;;;;;6308803;22;20010;-88
2022/08/13 10:11:54;;;;;;;4.20;1.80;;;;;;;;;;6309021;22;20003;-84
2022/08/13 10:14:20;;;;;;;2.78;1.60;;;;;;;;;;6309250;22;20061;-85
2022/08/13 10:16:45;;;;;;;2.75;2.55;;;;;;;;;;6308406;22;20059;-87
2022/08/13 10:19:11;;;;;;;2.08;1.60;;;;;;;;;;6308216;22;20075;-85
2022/08/13 10:21:37;;;;;;;2.25;1.80;;;;;;;;;;6308378;22;20014;-86
2022/08/13 10:24:04;;;;;;;1.52;1.42;;;;;;;;;;6308264;22;20006;-85
2022/08/13 10:26:29;;;;;;;1.85;1.75;;;;;;;;;;6308134;22;20337;-87
2022/08/13 10:28:55;;;;;;;3.05;1.63;;;;;;;;;;6308147;22;20006;-90
2022/08/13 10:31:21;;;;;;;2.15;1.40;;;;;;;;;;6308697;22;20006;-84
2022/08/13 10:33:47;;;;;;;2.05;1.58;;;;;;;;;;6308277;22;20358;-86
2022/08/13 10:36:14;;;;;;;1.70;1.60;;;;;;;;;;6308740;22;20057;-91
2022/08/13 10:38:40;;;;;;;1.88;1.77;;;;;;;;;;6306536;22;20065;-90
2022/08/13 10:41:07;;;;;;;1.80;1.70;;;;;;;;;;6308982;22;20007;-87
2022/08/13 10:43:35;;;;;;;1.80;1.70;;;;;;;;;;6309824;22;20052;-92
2022/08/13 10:46:00;;;;;;;2.63;2.27;;;;;;;;;;6309956;22;20006;-88
2022/08/13 10:48:27;;;;;;;13.25;11.45;;;;;;;;;;6310277;22;20003;-87
2022/08/13 10:50:54;;;;;;;12.98;8.63;;;;;;;;;;6310849;22;20021;-91
2022/08/13 10:56:08;;;;;;;4.80;4.20;;;;;;;;;;6309720;22;20065;-90
2022/08/13 10:58:34;;;;;;;15.95;12.00;;;;;;;;;;6310129;22;20326;-91
2022/08/13 11:01:02;;;;;;;11.25;8.02;;;;;;;;;;6310229;22;20315;-91
2022/08/13 11:03:30;;;;;;;29.75;20.45;;;;;;;;;;6308399;22;20010;-91
2022/08/13 11:05:56;;;;;;;11.20;9.57;;;;;;;;;;6309481;22;20034;-91
2022/08/13 11:08:21;;;;;;;4.35;3.38;;;;;;;;;;6308121;22;20049;-92
2022/08/13 11:10:46;;;;;;;2.22;2.08;;;;;;;;;;6309720;22;20003;-91
2022/08/13 11:13:12;;;;;;;4.72;4.22;;;;;;;;;;6308617;22;20003;-90
2022/08/13 11:15:37;;;;;;;2.65;2.45;;;;;;;;;;6309329;22;20318;-87
2022/08/13 11:18:05;;;;;;;2.00;1.90;;;;;;;;;;6309376;22;20448;-90
2022/08/13 11:20:40;;;;;;;11.55;6.07;;;;;;;;;;6309572;22;20449;-89
2022/08/13 11:23:06;;;;;;;7.55;4.32;;;;;;;;;;6310223;22;20007;-88
2022/08/13 11:25:32;;;;;;;3.10;2.50;;;;;;;;;;6309490;22;20011;-86
2022/08/13 11:27:58;;;;;;;9.07;4.75;;;;;;;;;;6309492;22;20010;-89
2022/08/13 11:30:23;;;;;;;4.72;3.03;;;;;;;;;;6309677;22;20006;-84
2022/08/13 11:32:48;;;;;;;3.30;3.00;;;;;;;;;;6309632;22;20003;-88
2022/08/13 11:35:14;;;;;;;1.80;1.60;;;;;;;;;;6309725;22;20022;-90
2022/08/13 11:37:39;;;;;;;2.00;1.90;;;;;;;;;;6309256;22;20003;-85
2022/08/13 11:40:06;;;;;;;1.55;1.40;;;;;;;;;;6307742;22;20010;-84
2022/08/13 11:42:32;;;;;;;1.50;1.40;;;;;;;;;;6308931;22;19999;-88
2022/08/13 11:44:57;;;;;;;1.80;1.70;;;;;;;;;;6309231;22;20010;-88
2022/08/13 11:47:24;;;;;;;1.73;1.63;;;;;;;;;;6309228;22;20467;-86
2022/08/13 11:49:49;;;;;;;1.60;1.50;;;;;;;;;;6309119;22;20453;-84
2022/08/13 11:52:15;;;;;;;1.77;1.67;;;;;;;;;;6309023;22;19999;-84
2022/08/13 11:54:40;;;;;;;1.73;1.60;;;;;;;;;;6308925;22;20006;-86
2022/08/13 11:57:07;;;;;;;2.08;1.95;;;;;;;;;;6307407;22;20014;-88
2022/08/13 11:59:33;;;;;;;1.85;1.75;;;;;;;;;;6309306;22;20003;-89
2022/08/13 12:01:58;;;;;;;1.77;1.67;;;;;;;;;;6309134;22;20035;-85
2022/08/13 12:04:25;;;;;;;1.85;1.75;;;;;;;;;;6309000;22;20446;-83
2022/08/13 12:06:50;;;;;;;1.90;1.80;;;;;;;;;;6308781;22;19995;-86
2022/08/13 12:09:20;;;;;;;2.28;1.80;;;;;;;;;;6309056;22;20015;-88
2022/08/13 12:11:45;;;;;;;1.73;1.50;;;;;;;;;;6309242;22;19995;-87
2022/08/13 12:14:11;;;;;;;1.80;1.70;;;;;;;;;;6309192;22;20161;-88
2022/08/13 12:16:36;;;;;;;2.13;2.00;;;;;;;;;;6308749;22;20003;-89
2022/08/13 12:19:02;;;;;;;1.88;1.77;;;;;;;;;;6308803;22;20003;-88
2022/08/13 12:21:27;;;;;;;1.90;1.73;;;;;;;;;;6333263;22;20334;-88
2022/08/13 12:23:53;;;;;;;1.73;1.60;;;;;;;;;;6308919;22;20057;-89
2022/08/13 12:26:19;;;;;;;1.60;1.50;;;;;;;;;;6308970;22;19999;-87
2022/08/13 12:28:44;;;;;;;2.10;1.70;;;;;;;;;;6309886;22;20004;-88
2022/08/13 12:31:09;;;;;;;2.00;1.90;;;;;;;;;;6310070;22;20436;-86
2022/08/13 12:33:37;;;;;;;3.45;2.30;;;;;;;;;;6313787;22;20407;-88
2022/08/13 12:36:03;;;;;;;2.00;1.75;;;;;;;;;;6316772;22;20003;-90
2022/08/13 12:38:29;;;;;;;1.95;1.75;;;;;;;;;;6316130;22;19999;-82
2022/08/13 12:40:55;;;;;;;1.63;1.50;;;;;;;;;;6312986;22;20010;-82
2022/08/13 12:43:20;;;;;;;2.35;1.83;;;;;;;;;;6310535;22;20004;-85
2022/08/13 12:45:46;;;;;;;4.43;1.20;;;;;;;;;;6309749;22;20010;-85
2022/08/13 12:48:14;;;;;;;2.35;1.67;;;;;;;;;;6307802;22;20007;-85
2022/08/13 12:50:46;;;;;;;2.80;1.50;;;;;;;;;;6309060;22;20009;-86
2022/08/13 12:53:14;;;;;;;1.52;1.42;;;;;;;;;;6308931;22;20006;-86
2022/08/13 12:55:40;;;;;;;1.63;1.50;;;;;;;;;;6309596;22;20029;-87
2022/08/13 12:58:26;;;;;;;1.52;1.42;;;;;;;;;;6308323;22;20057;-88
2022/08/13 13:00:57;;;;;;;1.60;1.00;;;;;;;;;;6309583;22;20003;-87
2022/08/13 13:03:26;;;;;;;1.52;1.23;;;;;;;;;;6309521;22;20006;-86
2022/08/13 13:05:51;;;;;;;1.30;1.20;;;;;;;;;;6309617;22;20003;-88
2022/08/13 13:08:28;;;;;;;1.13;1.10;;;;;;;;;;6309883;22;20081;-88
2022/08/13 13:10:56;;;;;;;2.45;1.17;;;;;;;;;;6309267;22;20451;-88
2022/08/13 13:13:25;;;;;;;1.25;1.17;;;;;;;;;;6309584;22;20418;-87
